createdAt,value
2022-12-25T00:02:27.156Z,4.80
2022-12-25T00:04:53.950Z,5.10
2022-12-25T00:07:20.701Z,5.70
2022-12-25T00:09:47.455Z,5.50
2022-12-25T00:14:41.421Z,6.00
2022-12-25T00:17:08.214Z,5.40
2022-12-25T00:19:34.996Z,5.00
2022-12-25T00:22:01.782Z,5.50
2022-12-25T00:24:28.551Z,7.40
2022-12-25T00:39:11.756Z,5.90
2022-12-25T00:42:01.408Z,5.10
2022-12-25T00:44:28.237Z,5.50
2022-12-25T00:46:55.044Z,5.30
2022-12-25T00:49:23.685Z,4.30
2022-12-25T00:51:51.281Z,5.00
2022-12-25T00:54:18.659Z,4.80
2022-12-25T00:56:45.827Z,5.40
2022-12-25T00:59:13.112Z,5.20
2022-12-25T01:01:40.867Z,6.50
2022-12-25T01:04:08.963Z,6.60
2022-12-25T01:06:35.877Z,4.90
2022-12-25T01:09:21.856Z,4.80
2022-12-25T01:11:48.878Z,5.50
2022-12-25T01:14:15.876Z,5.60
2022-12-25T01:16:42.992Z,6.40
2022-12-25T01:19:10.691Z,4.90
2022-12-25T01:21:37.931Z,6.80
2022-12-25T01:24:04.924Z,7.00
2022-12-25T01:26:31.694Z,5.90
2022-12-25T01:28:58.584Z,4.70
2022-12-25T01:31:25.510Z,6.70
2022-12-25T01:33:52.864Z,7.30
2022-12-25T01:36:21.553Z,7.20
2022-12-25T01:38:49.089Z,4.90
2022-12-25T01:41:18.599Z,4.70
2022-12-25T01:43:57.762Z,5.30
2022-12-25T01:46:24.671Z,5.60
2022-12-25T01:48:53.443Z,5.60
2022-12-25T01:51:25.127Z,4.40
2022-12-25T01:53:52.132Z,4.80
2022-12-25T01:56:19.195Z,5.00
2022-12-25T01:58:46.425Z,5.30
2022-12-25T02:01:13.346Z,5.40
2022-12-25T02:03:42.541Z,5.20
2022-12-25T02:06:09.528Z,5.30
2022-12-25T02:08:36.451Z,5.70
2022-12-25T02:11:03.264Z,5.00
2022-12-25T02:13:30.189Z,6.70
2022-12-25T02:16:21.041Z,5.10
2022-12-25T02:18:57.811Z,5.60
2022-12-25T02:21:30.584Z,6.00
2022-12-25T02:24:03.589Z,5.30
2022-12-25T02:26:46.485Z,5.60
2022-12-25T02:29:44.158Z,5.90
2022-12-25T02:32:32.801Z,5.70
2022-12-25T02:35:05.465Z,5.80
2022-12-25T02:37:39.914Z,6.00
2022-12-25T02:40:27.437Z,6.20
2022-12-25T02:43:36.404Z,6.10
2022-12-25T02:46:25.688Z,6.10
2022-12-25T02:49:15.389Z,6.60
2022-12-25T02:52:05.323Z,6.10
2022-12-25T02:54:55.918Z,5.70
2022-12-25T02:57:50.424Z,5.50
2022-12-25T03:00:36.125Z,5.30
2022-12-25T03:06:11.642Z,5.70
2022-12-25T03:11:30.369Z,5.80
2022-12-25T03:14:22.860Z,5.80
2022-12-25T03:16:56.501Z,6.10
2022-12-25T03:19:46.868Z,7.50
2022-12-25T03:25:21.720Z,5.80
2022-12-25T03:27:52.755Z,5.50
2022-12-25T03:33:43.997Z,5.60
2022-12-25T03:36:14.750Z,5.20
2022-12-25T03:38:52.946Z,5.80
2022-12-25T03:41:43.326Z,5.10
2022-12-25T03:47:33.675Z,5.50
2022-12-25T03:50:35.240Z,5.70
2022-12-25T03:53:26.410Z,5.30
2022-12-25T03:56:12.489Z,5.00
2022-12-25T03:59:09.080Z,5.20
2022-12-25T04:01:54.586Z,5.20
2022-12-25T04:04:39.765Z,4.90
2022-12-25T04:07:25.307Z,5.10
2022-12-25T04:10:10.330Z,7.20
2022-12-25T04:12:55.773Z,5.00
2022-12-25T04:15:41.395Z,5.10
2022-12-25T04:21:12.771Z,5.40
2022-12-25T04:23:57.886Z,4.90
2022-12-25T04:26:43.058Z,5.10
2022-12-25T04:29:28.500Z,5.00
2022-12-25T04:49:43.014Z,4.90
2022-12-25T04:52:09.847Z,4.80
2022-12-25T04:54:38.501Z,4.70
2022-12-25T04:57:05.693Z,4.80
2022-12-25T05:01:59.890Z,4.70
2022-12-25T05:04:26.756Z,5.80
2022-12-25T05:43:44.609Z,4.60
2022-12-25T05:46:13.138Z,4.90
2022-12-25T06:01:00.215Z,4.80
2022-12-25T06:08:22.124Z,4.20
2022-12-25T06:10:49.010Z,4.90
2022-12-25T06:13:15.964Z,4.60
2022-12-25T06:15:42.907Z,4.40
2022-12-25T06:18:09.847Z,4.80
2022-12-25T06:20:36.696Z,5.10
2022-12-25T06:23:03.586Z,4.50
2022-12-25T06:25:30.461Z,4.70
2022-12-25T06:27:57.281Z,4.60
2022-12-25T06:30:24.077Z,4.40
2022-12-25T06:32:50.898Z,4.20
2022-12-25T06:35:17.664Z,4.90
2022-12-25T06:37:44.686Z,4.20
2022-12-25T06:40:13.167Z,4.70
2022-12-25T06:42:40.033Z,4.20
2022-12-25T06:45:07.311Z,4.60
2022-12-25T06:47:34.187Z,4.30
2022-12-25T06:50:00.998Z,4.30
2022-12-25T06:52:27.799Z,5.10
2022-12-25T06:54:54.650Z,4.80
2022-12-25T06:57:21.439Z,4.20
2022-12-25T06:59:54.603Z,5.00
2022-12-25T07:02:23.947Z,4.30
2022-12-25T07:04:51.563Z,4.20
2022-12-25T07:07:18.338Z,4.30
2022-12-25T07:09:45.114Z,4.40
2022-12-25T07:12:16.714Z,4.30
2022-12-25T07:14:44.759Z,4.40
2022-12-25T07:17:11.730Z,4.40
2022-12-25T07:19:44.627Z,4.50
2022-12-25T07:22:11.922Z,4.60
2022-12-25T07:24:38.761Z,5.00
2022-12-25T07:27:05.820Z,4.50
2022-12-25T07:29:32.660Z,4.60
2022-12-25T07:31:59.518Z,4.70
2022-12-25T07:34:26.514Z,5.50
2022-12-25T07:36:55.263Z,4.90
2022-12-25T07:39:22.221Z,4.90
2022-12-25T07:41:49.133Z,5.00
2022-12-25T07:44:16.342Z,5.70
2022-12-25T07:46:43.551Z,5.80
2022-12-25T07:49:11.383Z,5.90
2022-12-25T07:51:38.318Z,5.40
2022-12-25T07:54:05.195Z,5.90
2022-12-25T07:56:32.960Z,5.60
2022-12-25T07:58:59.739Z,5.70
2022-12-25T08:01:30.177Z,6.40
2022-12-25T08:04:00.060Z,5.90
2022-12-25T08:06:31.022Z,6.40
2022-12-25T08:09:04.150Z,6.70
2022-12-25T08:11:31.198Z,6.60
2022-12-25T08:13:58.134Z,6.00
2022-12-25T08:16:25.325Z,6.10
2022-12-25T08:21:20.446Z,6.40
2022-12-25T08:23:47.582Z,6.40
2022-12-25T08:26:17.714Z,6.40
2022-12-25T08:28:44.871Z,6.50
2022-12-25T08:31:21.369Z,6.50
2022-12-25T08:33:49.973Z,6.70
2022-12-25T08:36:18.099Z,7.50
2022-12-25T08:38:45.186Z,7.00
2022-12-25T08:41:12.946Z,7.00
2022-12-25T08:43:39.876Z,7.80
2022-12-25T08:46:08.164Z,6.60
2022-12-25T08:48:35.327Z,7.00
2022-12-25T08:51:02.784Z,7.10
2022-12-25T08:53:29.643Z,6.90
2022-12-25T08:56:00.982Z,7.10
2022-12-25T08:58:28.560Z,7.20
2022-12-25T09:00:56.473Z,8.00
2022-12-25T09:03:23.988Z,8.00
2022-12-25T09:05:52.115Z,8.00
2022-12-25T09:08:19.948Z,7.40
2022-12-25T09:10:46.797Z,7.60
2022-12-25T09:13:13.899Z,7.30
2022-12-25T09:15:41.093Z,7.30
2022-12-25T09:18:07.986Z,7.20
2022-12-25T09:20:34.797Z,7.40
2022-12-25T09:23:01.563Z,7.50
2022-12-25T09:25:28.348Z,7.70
2022-12-25T09:27:58.639Z,7.80
2022-12-25T09:30:25.401Z,8.90
2022-12-25T09:32:52.235Z,8.30
2022-12-25T09:35:19.101Z,8.50
2022-12-25T09:37:46.146Z,8.80
2022-12-25T09:40:20.553Z,8.70
2022-12-25T09:42:48.515Z,8.50
2022-12-25T09:45:19.856Z,8.30
2022-12-25T09:47:48.746Z,8.30
2022-12-25T09:50:15.480Z,8.60
2022-12-25T09:53:00.853Z,7.90
2022-12-25T09:55:31.131Z,8.40
2022-12-25T09:58:02.251Z,8.40
2022-12-25T10:00:36.030Z,8.50
2022-12-25T10:03:24.308Z,8.60
2022-12-25T10:06:29.875Z,8.50
2022-12-25T10:09:20.838Z,8.40
2022-12-25T10:11:55.655Z,8.20
2022-12-25T10:14:47.594Z,8.70
2022-12-25T10:17:37.430Z,8.30
2022-12-25T10:20:14.533Z,8.40
2022-12-25T10:22:45.808Z,8.40
2022-12-25T10:25:19.515Z,8.40
2022-12-25T10:27:51.891Z,8.50
2022-12-25T10:30:24.369Z,8.70
2022-12-25T10:32:52.817Z,9.20
2022-12-25T10:35:23.058Z,9.30
2022-12-25T10:38:01.454Z,9.30
2022-12-25T10:40:40.820Z,9.30
2022-12-25T10:43:21.375Z,9.30
2022-12-25T10:45:49.576Z,9.20
2022-12-25T10:48:21.602Z,9.90
2022-12-25T10:50:49.136Z,9.20
2022-12-25T10:53:22.543Z,9.70
2022-12-25T10:56:04.468Z,9.30
2022-12-25T10:58:32.538Z,9.30
2022-12-25T11:01:06.339Z,9.40
2022-12-25T11:03:35.188Z,9.30
2022-12-25T11:06:02.980Z,9.30
2022-12-25T11:08:33.114Z,9.40
2022-12-25T11:11:08.366Z,9.20
2022-12-25T11:13:39.514Z,9.30
2022-12-25T11:16:09.706Z,10.10
2022-12-25T11:18:51.801Z,9.30
2022-12-25T11:21:45.088Z,9.30
2022-12-25T11:24:19.789Z,9.90
2022-12-25T11:26:49.244Z,9.20
2022-12-25T11:29:31.452Z,9.40
2022-12-25T11:32:00.515Z,9.30
2022-12-25T11:34:35.939Z,10.10
2022-12-25T11:37:08.509Z,9.40
2022-12-25T11:39:37.324Z,9.30
2022-12-25T11:42:33.142Z,9.80
2022-12-25T11:45:10.832Z,9.50
2022-12-25T11:47:43.349Z,9.60
2022-12-25T11:50:23.579Z,9.60
2022-12-25T11:52:52.684Z,9.70
2022-12-25T11:55:35.477Z,8.50
2022-12-25T11:58:17.870Z,9.80
2022-12-25T12:00:47.529Z,9.90
2022-12-25T12:03:36.607Z,9.80
2022-12-25T12:06:09.104Z,9.90
2022-12-25T12:08:36.395Z,10.80
2022-12-25T12:11:22.397Z,11.10
2022-12-25T12:14:19.042Z,10.70
2022-12-25T12:16:45.918Z,9.70
2022-12-25T12:19:28.050Z,9.60
2022-12-25T12:22:00.757Z,10.20
2022-12-25T12:24:39.134Z,11.00
2022-12-25T12:27:21.246Z,9.90
2022-12-25T12:29:54.694Z,9.90
2022-12-25T12:32:34.213Z,10.00
2022-12-25T12:35:08.672Z,9.80
2022-12-25T12:40:07.047Z,10.20
2022-12-25T12:42:45.138Z,10.20
2022-12-25T12:45:23.347Z,10.70
2022-12-25T12:47:51.556Z,10.10
2022-12-25T12:50:36.600Z,10.10
2022-12-25T12:53:26.980Z,10.20
2022-12-25T12:55:53.941Z,10.20
2022-12-25T12:58:34.372Z,10.10
2022-12-25T13:01:13.594Z,10.20
2022-12-25T13:03:56.044Z,10.60
2022-12-25T13:06:40.722Z,10.20
2022-12-25T13:09:23.971Z,10.10
2022-12-25T13:11:51.029Z,10.20
2022-12-25T13:14:23.070Z,10.70
2022-12-25T13:16:53.008Z,10.20
2022-12-25T13:19:23.637Z,10.40
2022-12-25T13:22:02.081Z,10.20
2022-12-25T13:24:31.589Z,10.20
2022-12-25T13:26:59.439Z,10.30
2022-12-25T13:32:03.056Z,11.00
2022-12-25T13:34:32.860Z,11.20
2022-12-25T13:37:06.031Z,11.30
2022-12-25T13:39:34.906Z,11.00
2022-12-25T13:42:11.406Z,11.60
2022-12-25T13:44:41.184Z,12.50
2022-12-25T13:47:17.136Z,12.50
2022-12-25T13:49:44.834Z,12.70
2022-12-25T13:52:14.306Z,12.20
2022-12-25T13:54:59.204Z,12.00
2022-12-25T13:57:34.200Z,13.20
2022-12-25T14:00:01.652Z,12.00
2022-12-25T14:04:57.656Z,15.50
2022-12-25T14:07:27.378Z,17.70
2022-12-25T14:09:58.320Z,16.90
2022-12-25T14:14:55.464Z,13.20
2022-12-25T14:20:07.509Z,12.00
2022-12-25T14:22:36.038Z,11.90
2022-12-25T14:27:32.947Z,11.10
2022-12-25T14:30:00.701Z,9.80
2022-12-25T14:32:30.238Z,12.50
2022-12-25T14:35:04.858Z,9.80
2022-12-25T14:37:33.244Z,9.80
2022-12-25T14:40:02.385Z,10.20
2022-12-25T14:42:32.097Z,11.80
2022-12-25T14:45:18.786Z,11.70
2022-12-25T14:50:33.621Z,10.20
2022-12-25T14:53:00.687Z,10.10
2022-12-25T14:55:29.473Z,9.50
2022-12-25T14:58:07.745Z,9.50
2022-12-25T15:00:38.034Z,10.00
2022-12-25T15:03:15.741Z,9.90
